createdAt,value
2022-08-07T00:01:43.669Z,19.15
2022-08-07T00:04:15.511Z,19.12
2022-08-07T00:06:51.366Z,19.06
2022-08-07T00:09:21.206Z,19.08
2022-08-07T00:11:55.660Z,19.30
2022-08-07T00:14:30.983Z,19.14
2022-08-07T00:17:02.559Z,19.09
2022-08-07T00:19:34.335Z,19.11
2022-08-07T00:22:24.514Z,19.13
2022-08-07T00:25:15.719Z,19.12
2022-08-07T00:27:52.471Z,19.06
2022-08-07T00:30:27.451Z,19.28
2022-08-07T00:33:00.458Z,19.17
2022-08-07T00:35:30.652Z,19.14
2022-08-07T00:38:01.077Z,19.07
2022-08-07T00:40:39.458Z,19.08
2022-08-07T00:43:09.801Z,19.06
2022-08-07T00:45:39.101Z,19.05
2022-08-07T00:48:09.359Z,19.00
2022-08-07T00:50:50.456Z,19.01
2022-08-07T00:53:21.486Z,18.96
2022-08-07T00:56:02.753Z,18.94
2022-08-07T00:58:32.532Z,18.98
2022-08-07T01:00:59.954Z,19.04
2022-08-07T01:03:55.864Z,19.07
2022-08-07T01:06:14.612Z,18.98
2022-08-07T01:08:51.467Z,18.91
2022-08-07T01:12:27.804Z,18.93
2022-08-07T01:14:09.189Z,18.90
2022-08-07T01:16:37.137Z,18.85
2022-08-07T01:19:14.889Z,18.80
2022-08-07T01:21:53.227Z,18.79
2022-08-07T01:24:25.769Z,18.78
2022-08-07T01:26:54.517Z,18.72
2022-08-07T01:29:27.680Z,18.70
2022-08-07T01:31:59.907Z,18.67
2022-08-07T01:34:32.918Z,18.63
2022-08-07T01:37:09.729Z,18.61
2022-08-07T01:39:41.430Z,18.63
2022-08-07T01:42:40.281Z,18.60
2022-08-07T01:45:23.095Z,18.60
2022-08-07T01:48:18.555Z,18.56
2022-08-07T01:50:58.906Z,18.53
2022-08-07T01:54:12.659Z,18.49
2022-08-07T01:56:25.338Z,18.46
2022-08-07T01:59:06.310Z,18.51
2022-08-07T02:01:59.480Z,18.48
2022-08-07T02:04:32.475Z,18.45
2022-08-07T02:07:04.150Z,18.43
2022-08-07T02:09:51.632Z,18.45
2022-08-07T02:12:30.868Z,18.48
2022-08-07T02:15:00.948Z,18.45
2022-08-07T02:17:36.386Z,18.38
2022-08-07T02:20:10.031Z,18.45
2022-08-07T02:22:46.623Z,18.49
2022-08-07T02:25:22.134Z,18.39
2022-08-07T02:28:12.259Z,18.29
2022-08-07T02:30:41.005Z,18.16
2022-08-07T02:33:10.567Z,18.15
2022-08-07T02:36:30.569Z,18.14
2022-08-07T02:38:36.912Z,18.09
2022-08-07T02:41:05.634Z,17.99
2022-08-07T02:43:39.462Z,17.85
2022-08-07T02:46:08.906Z,17.66
2022-08-07T02:48:38.094Z,17.66
2022-08-07T02:51:14.226Z,17.70
2022-08-07T02:53:58.026Z,17.88
2022-08-07T02:56:29.755Z,17.81
2022-08-07T02:59:02.163Z,17.78
2022-08-07T03:01:35.799Z,17.71
2022-08-07T03:04:12.909Z,17.67
2022-08-07T03:06:44.812Z,17.65
2022-08-07T03:09:42.330Z,17.69
2022-08-07T03:12:08.135Z,17.68
2022-08-07T03:14:52.832Z,17.65
2022-08-07T03:17:22.203Z,17.57
2022-08-07T03:19:54.899Z,17.55
2022-08-07T03:22:30.228Z,17.49
2022-08-07T03:25:00.156Z,17.48
2022-08-07T03:27:58.707Z,17.51
2022-08-07T03:30:18.534Z,17.51
2022-08-07T03:32:58.902Z,17.56
2022-08-07T03:35:43.858Z,17.54
2022-08-07T03:38:21.435Z,17.54
2022-08-07T03:41:00.552Z,17.53
2022-08-07T03:43:32.393Z,17.56
2022-08-07T03:46:10.482Z,17.53
2022-08-07T03:49:02.892Z,17.51
2022-08-07T03:51:47.092Z,17.47
2022-08-07T03:54:36.120Z,17.50
2022-08-07T03:57:07.621Z,17.46
2022-08-07T03:59:37.049Z,17.48
2022-08-07T04:02:14.700Z,17.55
2022-08-07T04:04:42.799Z,17.52
2022-08-07T04:07:17.453Z,17.47
2022-08-07T04:09:50.555Z,17.49
2022-08-07T04:12:26.912Z,17.55
2022-08-07T04:14:59.497Z,17.58
2022-08-07T04:17:45.676Z,17.57
2022-08-07T04:20:19.613Z,17.60
2022-08-07T04:22:53.634Z,17.56
2022-08-07T04:25:39.502Z,17.59
2022-08-07T04:28:10.407Z,17.63
2022-08-07T04:30:55.426Z,17.65
2022-08-07T04:33:28.722Z,17.71
2022-08-07T04:35:56.791Z,17.72
2022-08-07T04:38:27.927Z,17.78
2022-08-07T04:40:57.392Z,17.81
2022-08-07T04:44:12.292Z,17.92
2022-08-07T04:46:34.695Z,18.04
2022-08-07T04:49:28.732Z,18.19
2022-08-07T04:52:04.294Z,18.27
2022-08-07T04:54:58.092Z,18.37
2022-08-07T04:58:23.768Z,18.48
2022-08-07T05:01:14.725Z,18.60
2022-08-07T05:04:17.790Z,18.75
2022-08-07T05:07:09.581Z,18.71
2022-08-07T05:10:11.789Z,18.80
2022-08-07T05:12:53.085Z,18.97
2022-08-07T05:15:35.992Z,19.23
2022-08-07T05:18:09.128Z,19.37
2022-08-07T05:20:48.041Z,19.55
2022-08-07T05:23:29.858Z,19.66
2022-08-07T05:26:12.974Z,19.78
2022-08-07T05:28:48.721Z,19.74
2022-08-07T05:31:23.230Z,19.71
2022-08-07T05:34:04.766Z,19.56
2022-08-07T05:36:39.008Z,19.55
2022-08-07T05:40:06.374Z,19.56
2022-08-07T05:42:07.368Z,19.55
2022-08-07T05:44:46.447Z,19.63
2022-08-07T05:47:38.178Z,19.68
2022-08-07T05:50:10.202Z,19.68
2022-08-07T05:52:37.351Z,19.79
2022-08-07T05:55:10.967Z,19.74
2022-08-07T05:57:43.194Z,19.84
2022-08-07T06:00:16.643Z,19.99
2022-08-07T06:02:55.955Z,20.10
2022-08-07T06:05:28.822Z,20.20
2022-08-07T06:08:14.594Z,20.30
2022-08-07T06:10:52.061Z,20.30
2022-08-07T06:14:13.173Z,20.26
2022-08-07T06:16:13.420Z,20.41
2022-08-07T06:18:51.794Z,20.33
2022-08-07T06:22:15.646Z,20.34
2022-08-07T06:24:41.932Z,20.50
2022-08-07T06:27:00.194Z,20.45
2022-08-07T06:29:31.919Z,20.63
2022-08-07T06:31:58.705Z,20.83
2022-08-07T06:34:29.781Z,21.02
2022-08-07T06:36:59.338Z,21.30
2022-08-07T06:40:16.344Z,21.59
2022-08-07T06:42:34.985Z,22.24
2022-08-07T06:45:23.816Z,22.67
2022-08-07T06:48:01.436Z,22.90
2022-08-07T06:50:39.303Z,23.08
2022-08-07T06:54:11.934Z,23.83
2022-08-07T06:56:03.492Z,23.51
2022-08-07T06:58:37.432Z,23.69
2022-08-07T07:01:14.419Z,23.61
2022-08-07T07:03:49.285Z,23.44
2022-08-07T07:06:26.318Z,23.52
2022-08-07T07:08:54.862Z,23.67
2022-08-07T07:12:08.937Z,24.23
2022-08-07T07:14:11.939Z,24.08
2022-08-07T07:16:49.925Z,23.96
2022-08-07T07:19:55.071Z,23.47
2022-08-07T07:22:36.930Z,23.66
2022-08-07T07:26:30.417Z,24.63
2022-08-07T07:28:29.757Z,25.08
2022-08-07T07:31:30.446Z,25.30
2022-08-07T07:34:11.641Z,26.19
2022-08-07T07:36:47.917Z,26.68
2022-08-07T07:39:21.368Z,26.08
2022-08-07T07:42:12.871Z,25.29
2022-08-07T07:44:41.974Z,24.54
2022-08-07T07:47:23.763Z,25.00
2022-08-07T07:50:34.142Z,26.37
2022-08-07T07:52:41.761Z,26.68
2022-08-07T07:55:10.957Z,27.42
2022-08-07T07:57:43.830Z,28.22
2022-08-07T08:00:29.210Z,28.88
2022-08-07T08:03:05.674Z,28.92
2022-08-07T08:05:51.017Z,29.14
2022-08-07T08:08:35.112Z,28.65
2022-08-07T08:11:13.662Z,28.75
2022-08-07T08:13:54.255Z,28.52
2022-08-07T08:16:29.907Z,28.45
2022-08-07T08:19:00.471Z,28.49
2022-08-07T08:22:03.082Z,28.96
2022-08-07T08:25:04.866Z,28.55
2022-08-07T08:27:57.523Z,28.84
2022-08-07T08:30:34.581Z,28.60
2022-08-07T08:33:05.367Z,28.63
2022-08-07T08:35:43.040Z,29.31
2022-08-07T08:38:20.555Z,30.39
2022-08-07T08:41:07.427Z,32.18
2022-08-07T08:43:55.797Z,32.40
2022-08-07T08:46:34.231Z,34.25
2022-08-07T08:49:33.497Z,36.78
2022-08-07T08:52:22.010Z,38.83
2022-08-07T08:55:10.107Z,39.13
2022-08-07T08:58:24.703Z,39.79
2022-08-07T09:01:15.844Z,39.72
2022-08-07T09:03:58.259Z,40.48
2022-08-07T09:06:47.772Z,39.39
2022-08-07T09:09:56.820Z,40.80
2022-08-07T09:12:42.064Z,37.54
2022-08-07T09:16:23.130Z,35.68
2022-08-07T09:18:13.899Z,37.96
2022-08-07T09:20:58.362Z,39.93
2022-08-07T09:24:30.374Z,39.53
2022-08-07T09:26:32.838Z,39.61
2022-08-07T09:30:01.924Z,41.19
2022-08-07T09:32:38.171Z,42.46
2022-08-07T09:36:03.026Z,40.94
2022-08-07T09:38:23.601Z,41.35
2022-08-07T09:41:36.292Z,41.94
2022-08-07T09:47:24.873Z,43.08
2022-08-07T09:48:01.400Z,40.67
2022-08-07T09:52:15.745Z,42.48
2022-08-07T09:54:16.275Z,42.70
2022-08-07T09:57:14.143Z,42.93
2022-08-07T10:00:00.880Z,43.03
2022-08-07T10:04:05.879Z,45.00
2022-08-07T10:06:09.018Z,44.95
2022-08-07T10:09:34.202Z,43.19
2022-08-07T10:12:32.037Z,46.20
2022-08-07T10:15:05.286Z,45.62
2022-08-07T10:18:01.337Z,40.56
2022-08-07T10:21:02.980Z,35.24
2022-08-07T10:24:05.280Z,36.60
2022-08-07T10:26:33.893Z,37.47
2022-08-07T10:29:19.495Z,38.83
2022-08-07T10:32:04.034Z,39.11
2022-08-07T10:34:47.746Z,39.01
2022-08-07T10:37:26.506Z,39.15
2022-08-07T10:40:48.470Z,39.04
2022-08-07T10:43:29.811Z,41.01
2022-08-07T10:46:09.691Z,42.98
2022-08-07T10:48:48.663Z,43.34
2022-08-07T10:51:57.320Z,43.74
2022-08-07T10:54:12.243Z,45.90
2022-08-07T10:56:57.275Z,46.53
2022-08-07T10:59:47.718Z,43.92
2022-08-07T11:02:33.526Z,43.71
2022-08-07T11:05:35.843Z,40.66
2022-08-07T11:08:43.281Z,39.25
2022-08-07T11:11:24.381Z,39.77
2022-08-07T11:14:45.087Z,39.64
2022-08-07T11:17:02.029Z,38.91
2022-08-07T11:20:14.101Z,37.81
2022-08-07T11:22:59.438Z,36.61
2022-08-07T11:25:47.903Z,35.31
2022-08-07T11:28:24.820Z,34.19
2022-08-07T11:30:52.297Z,34.81
2022-08-07T11:33:54.354Z,35.64
2022-08-07T11:36:30.805Z,36.05
2022-08-07T11:39:58.834Z,35.13
2022-08-07T11:42:42.561Z,33.32
2022-08-07T11:45:35.550Z,33.65
2022-08-07T11:48:29.706Z,33.83
2022-08-07T11:51:09.665Z,35.65
2022-08-07T11:54:01.109Z,36.55
2022-08-07T11:56:56.280Z,36.32
2022-08-07T12:00:12.466Z,36.17
2022-08-07T12:02:53.649Z,37.44
2022-08-07T12:05:47.663Z,35.75
2022-08-07T12:08:38.282Z,34.95
2022-08-07T12:11:22.053Z,35.20
2022-08-07T12:13:58.132Z,35.02
2022-08-07T12:16:31.091Z,34.01
2022-08-07T12:19:14.718Z,32.07
2022-08-07T12:22:38.689Z,31.04
2022-08-07T12:26:21.472Z,29.40
2022-08-07T12:28:49.773Z,28.62
2022-08-07T12:32:01.674Z,28.59
2022-08-07T12:34:34.581Z,28.13
2022-08-07T12:37:08.269Z,28.50
2022-08-07T12:39:50.825Z,28.60
2022-08-07T12:42:27.172Z,28.33
2022-08-07T12:44:58.055Z,28.31
2022-08-07T12:47:49.319Z,28.24
2022-08-07T12:50:33.786Z,28.45
2022-08-07T12:53:29.917Z,28.79
2022-08-07T12:56:19.483Z,28.46
2022-08-07T12:58:57.345Z,27.70
2022-08-07T13:01:27.947Z,27.80
2022-08-07T13:04:34.077Z,27.78
2022-08-07T13:07:06.712Z,27.62
2022-08-07T13:10:29.175Z,27.60
2022-08-07T13:12:59.599Z,27.78
2022-08-07T13:16:00.320Z,27.43
2022-08-07T13:18:34.217Z,27.51
2022-08-07T13:21:50.582Z,27.54
2022-08-07T13:24:43.953Z,27.73
2022-08-07T13:28:05.701Z,27.71
2022-08-07T13:30:39.640Z,27.67
2022-08-07T13:34:30.878Z,27.83
2022-08-07T13:36:05.615Z,28.12
2022-08-07T13:38:47.504Z,28.15
2022-08-07T13:41:23.350Z,28.11
2022-08-07T13:43:57.062Z,27.92
2022-08-07T13:46:33.196Z,28.02
2022-08-07T13:49:08.907Z,28.56
2022-08-07T13:52:23.034Z,29.05
2022-08-07T13:54:41.807Z,28.81
2022-08-07T13:57:24.070Z,28.95
2022-08-07T14:00:07.066Z,28.91
2022-08-07T14:02:51.191Z,28.48
2022-08-07T14:05:23.503Z,28.12
2022-08-07T14:08:00.418Z,27.77
2022-08-07T14:10:34.744Z,27.50
2022-08-07T14:13:14.205Z,27.28
2022-08-07T14:15:45.178Z,27.14
2022-08-07T14:18:33.437Z,27.57
2022-08-07T14:22:01.420Z,27.56
2022-08-07T14:24:26.789Z,27.85
2022-08-07T14:27:01.132Z,27.92
2022-08-07T14:30:06.367Z,27.88
2022-08-07T14:32:45.702Z,28.18
2022-08-07T14:35:45.691Z,27.86
2022-08-07T14:38:26.279Z,27.71
2022-08-07T14:41:04.172Z,27.82
2022-08-07T14:43:58.341Z,27.70
2022-08-07T14:46:31.052Z,27.65
2022-08-07T14:49:17.498Z,27.81
2022-08-07T14:54:41.954Z,27.77
2022-08-07T14:57:19.337Z,27.64
2022-08-07T15:02:39.192Z,27.41
2022-08-07T15:05:20.618Z,27.31
2022-08-07T15:07:51.819Z,27.31
2022-08-07T15:10:29.952Z,27.26
2022-08-07T15:13:15.507Z,27.21
2022-08-07T15:15:52.859Z,26.93
2022-08-07T15:18:35.975Z,26.65
2022-08-07T15:21:08.323Z,26.73
2022-08-07T15:25:14.310Z,26.56
2022-08-07T15:26:50.412Z,26.65
2022-08-07T15:32:11.786Z,26.52
2022-08-07T15:38:18.234Z,26.20
2022-08-07T15:46:32.142Z,26.04
2022-08-07T15:49:11.687Z,26.10
2022-08-07T15:54:34.083Z,25.94
2022-08-07T15:57:03.094Z,25.85
2022-08-07T15:59:39.015Z,25.84
2022-08-07T16:02:15.187Z,25.71
2022-08-07T16:04:43.991Z,25.69
2022-08-07T16:08:28.569Z,25.62
2022-08-07T16:10:14.734Z,25.38
2022-08-07T16:12:41.718Z,25.16
2022-08-07T16:16:03.476Z,25.14
2022-08-07T16:18:49.390Z,25.05
2022-08-07T16:22:04.113Z,24.89
2022-08-07T16:24:52.690Z,24.85
2022-08-07T16:27:40.407Z,24.82
2022-08-07T16:30:30.580Z,24.68
2022-08-07T16:34:01.723Z,24.62
2022-08-07T16:36:22.207Z,24.63
2022-08-07T16:39:10.418Z,24.56
2022-08-07T16:42:00.111Z,24.48
2022-08-07T16:45:15.278Z,24.43
2022-08-07T16:48:09.466Z,24.32
2022-08-07T16:51:20.687Z,24.28
2022-08-07T16:54:16.710Z,24.19
2022-08-07T16:56:56.845Z,24.18
2022-08-07T16:59:51.215Z,24.13
2022-08-07T17:02:53.390Z,24.13
2022-08-07T17:06:19.004Z,24.12
2022-08-07T17:08:09.269Z,24.07
2022-08-07T17:10:54.429Z,24.08
2022-08-07T17:13:41.204Z,24.10
2022-08-07T17:16:44.644Z,24.11
2022-08-07T17:20:01.690Z,24.12
2022-08-07T17:22:38.122Z,24.09
2022-08-07T17:25:47.458Z,23.98
2022-08-07T17:28:19.345Z,23.99
2022-08-07T17:31:17.059Z,23.97
2022-08-07T17:34:18.056Z,23.90
2022-08-07T17:36:57.845Z,23.84
2022-08-07T17:39:58.278Z,23.74
2022-08-07T17:42:35.946Z,23.68
2022-08-07T17:45:27.401Z,23.62
2022-08-07T17:48:12.643Z,23.56
2022-08-07T17:51:21.519Z,23.49
2022-08-07T17:54:12.432Z,23.47
2022-08-07T17:56:49.932Z,23.39
2022-08-07T17:59:22.235Z,23.32
2022-08-07T18:01:57.750Z,23.24
2022-08-07T18:04:42.375Z,23.13
2022-08-07T18:07:20.747Z,23.15
2022-08-07T18:10:07.391Z,23.02
2022-08-07T18:13:01.642Z,22.99
2022-08-07T18:15:38.061Z,22.87
2022-08-07T18:18:45.093Z,22.77
2022-08-07T18:21:38.269Z,22.70
2022-08-07T18:24:37.534Z,22.61
2022-08-07T18:27:09.834Z,22.62
2022-08-07T18:30:07.189Z,22.54
2022-08-07T18:33:10.541Z,22.46
2022-08-07T18:36:08.023Z,22.37
2022-08-07T18:40:05.334Z,22.35
2022-08-07T18:42:41.630Z,22.32
2022-08-07T18:45:43.179Z,22.32
2022-08-07T18:50:05.908Z,22.24
2022-08-07T18:51:04.433Z,22.21
2022-08-07T18:53:54.175Z,22.13
2022-08-07T18:57:30.564Z,22.06
2022-08-07T19:00:32.759Z,21.99
2022-08-07T19:03:11.658Z,21.90
2022-08-07T19:06:08.043Z,21.88
2022-08-07T19:08:40.859Z,21.83
2022-08-07T19:11:36.456Z,21.80
2022-08-07T19:14:26.273Z,21.79
2022-08-07T19:17:07.790Z,21.71
2022-08-07T19:20:06.602Z,21.66
2022-08-07T19:23:18.279Z,21.59
2022-08-07T19:26:22.769Z,21.56
2022-08-07T19:30:55.343Z,21.50
2022-08-07T19:31:59.986Z,21.48
2022-08-07T19:34:33.898Z,21.51
2022-08-07T19:37:10.285Z,21.50
2022-08-07T19:39:57.199Z,21.45
2022-08-07T19:42:30.779Z,21.38
2022-08-07T19:45:09.492Z,21.39
2022-08-07T19:47:41.868Z,21.30
2022-08-07T19:50:41.325Z,21.25
2022-08-07T19:52:59.404Z,21.23
2022-08-07T19:55:56.795Z,21.18
2022-08-07T19:58:18.535Z,21.16
2022-08-07T20:00:57.477Z,21.06
2022-08-07T20:03:34.677Z,21.06
2022-08-07T20:06:05.035Z,20.99
2022-08-07T20:08:35.839Z,20.95
2022-08-07T20:11:10.501Z,20.91
2022-08-07T20:13:53.080Z,20.82
2022-08-07T20:16:35.584Z,20.81
2022-08-07T20:19:10.972Z,20.73
2022-08-07T20:21:48.325Z,20.67
2022-08-07T20:24:23.530Z,20.66
2022-08-07T20:26:59.086Z,20.66
2022-08-07T20:29:48.375Z,20.64
2022-08-07T20:32:26.407Z,20.66
2022-08-07T20:35:11.579Z,20.63
2022-08-07T20:37:57.667Z,20.60
2022-08-07T20:40:34.534Z,20.54
2022-08-07T20:43:14.469Z,20.49
2022-08-07T20:46:27.398Z,20.46
2022-08-07T20:48:37.191Z,20.48
2022-08-07T20:51:09.387Z,20.43
2022-08-07T20:54:03.285Z,20.35
2022-08-07T20:56:29.406Z,20.33
2022-08-07T20:59:01.381Z,20.33
2022-08-07T21:01:45.368Z,20.31
2022-08-07T21:04:22.676Z,20.32
2022-08-07T21:06:57.112Z,20.30
2022-08-07T21:09:35.485Z,20.21
2022-08-07T21:12:29.046Z,20.20
2022-08-07T21:15:02.490Z,20.21
2022-08-07T21:18:02.950Z,20.18
2022-08-07T21:20:29.811Z,20.17
2022-08-07T21:23:07.429Z,20.20
2022-08-07T21:25:50.152Z,20.22
2022-08-07T21:28:48.234Z,20.21
2022-08-07T21:32:42.043Z,20.25
2022-08-07T21:34:48.588Z,20.27
2022-08-07T21:37:24.841Z,20.30
2022-08-07T21:39:55.153Z,20.31
2022-08-07T21:43:04.438Z,20.32
2022-08-07T21:46:08.533Z,20.34
2022-08-07T21:48:43.755Z,20.29
2022-08-07T21:51:25.411Z,20.34
2022-08-07T21:54:01.231Z,20.36
2022-08-07T21:56:40.239Z,20.42
2022-08-07T22:00:04.383Z,20.43
2022-08-07T22:02:57.697Z,20.46
2022-08-07T22:05:45.862Z,20.45
2022-08-07T22:08:19.732Z,20.49
2022-08-07T22:10:51.129Z,20.44
2022-08-07T22:13:23.961Z,20.45
2022-08-07T22:16:38.482Z,20.41
2022-08-07T22:18:57.105Z,20.38
2022-08-07T22:22:04.822Z,20.33
2022-08-07T22:24:33.306Z,20.32
2022-08-07T22:27:06.279Z,20.31
2022-08-07T22:29:48.083Z,20.32
2022-08-07T22:32:26.396Z,20.32
2022-08-07T22:34:56.207Z,20.26
2022-08-07T22:38:01.688Z,20.32
2022-08-07T22:40:41.246Z,20.25
2022-08-07T22:43:15.831Z,20.27
2022-08-07T22:46:56.024Z,20.21
2022-08-07T22:49:05.654Z,20.18
2022-08-07T22:52:07.058Z,20.25
2022-08-07T22:55:17.097Z,20.12
2022-08-07T22:58:09.360Z,20.14
2022-08-07T23:00:46.057Z,20.05
2022-08-07T23:03:57.271Z,20.06
2022-08-07T23:06:51.615Z,20.07
2022-08-07T23:10:34.160Z,20.05
2022-08-07T23:13:16.944Z,20.04
2022-08-07T23:16:06.385Z,20.02
2022-08-07T23:18:34.271Z,19.96
2022-08-07T23:21:29.808Z,20.00
2022-08-07T23:24:22.490Z,19.99
2022-08-07T23:26:57.832Z,19.96
2022-08-07T23:30:38.438Z,19.97
2022-08-07T23:34:21.847Z,19.97
2022-08-07T23:36:17.120Z,19.99
2022-08-07T23:39:12.681Z,19.98
2022-08-07T23:42:21.691Z,20.02
2022-08-07T23:45:03.465Z,20.04
2022-08-07T23:48:02.887Z,19.97
2022-08-07T23:50:48.154Z,19.96
2022-08-07T23:53:51.344Z,19.94
2022-08-07T23:56:14.781Z,19.89
2022-08-07T23:59:00.207Z,19.86
